createdAt,value
2018-12-09T00:01:36.366Z,7.00
2018-12-09T00:06:38.757Z,7.00
2018-12-09T00:11:41.329Z,7.00
2018-12-09T00:16:43.747Z,7.00
2018-12-09T00:21:46.197Z,7.10
2018-12-09T00:26:48.651Z,7.10
2018-12-09T00:31:51.046Z,7.20
2018-12-09T00:36:53.487Z,7.20
2018-12-09T00:41:55.925Z,7.20
2018-12-09T00:46:58.334Z,7.20
2018-12-09T00:52:00.773Z,7.20
2018-12-09T00:57:03.353Z,7.30
2018-12-09T01:02:07.741Z,7.30
2018-12-09T01:07:10.266Z,7.30
2018-12-09T01:12:12.702Z,7.30
2018-12-09T01:17:15.165Z,7.30
2018-12-09T01:22:17.641Z,7.30
2018-12-09T01:27:20.215Z,7.30
2018-12-09T01:32:23.193Z,7.30
2018-12-09T01:37:25.630Z,7.30
2018-12-09T01:42:28.064Z,7.30
2018-12-09T01:47:30.549Z,7.30
2018-12-09T01:52:33.159Z,7.30
2018-12-09T01:57:35.665Z,7.30
2018-12-09T02:02:38.274Z,7.30
2018-12-09T02:07:40.830Z,7.30
2018-12-09T02:12:43.375Z,7.30
2018-12-09T02:17:46.135Z,7.30
2018-12-09T02:22:48.579Z,7.30
2018-12-09T02:27:51.146Z,7.30
2018-12-09T02:32:53.598Z,7.30
2018-12-09T02:37:56.064Z,7.30
2018-12-09T02:42:58.626Z,7.30
2018-12-09T02:48:01.547Z,7.30
2018-12-09T02:53:04.271Z,7.30
2018-12-09T02:58:07.092Z,7.30
2018-12-09T03:03:09.643Z,7.30
2018-12-09T03:08:12.151Z,7.30
2018-12-09T03:13:14.569Z,7.30
2018-12-09T03:18:17.147Z,7.30
2018-12-09T03:23:19.770Z,7.30
2018-12-09T03:28:22.212Z,7.30
2018-12-09T03:33:24.608Z,7.30
2018-12-09T03:38:27.546Z,7.30
2018-12-09T03:43:30.118Z,7.30
2018-12-09T03:48:32.534Z,7.30
2018-12-09T03:53:36.277Z,7.40
2018-12-09T03:58:39.396Z,7.40
2018-12-09T04:03:42.101Z,7.40
2018-12-09T04:08:44.509Z,7.40
2018-12-09T04:13:47.651Z,7.40
2018-12-09T04:18:50.358Z,7.40
2018-12-09T04:23:52.877Z,7.40
2018-12-09T04:28:55.470Z,7.40
2018-12-09T04:33:58.008Z,7.40
2018-12-09T04:39:00.483Z,7.40
2018-12-09T04:44:02.910Z,7.40
2018-12-09T04:49:05.362Z,7.40
2018-12-09T04:54:07.873Z,7.40
2018-12-09T04:59:16.191Z,7.40
2018-12-09T05:04:19.196Z,7.30
2018-12-09T05:09:21.734Z,7.30
2018-12-09T05:14:24.527Z,7.30
2018-12-09T05:19:27.121Z,7.30
2018-12-09T05:24:29.802Z,7.30
2018-12-09T05:29:32.277Z,7.20
2018-12-09T05:34:34.998Z,7.20
2018-12-09T05:39:37.514Z,7.20
2018-12-09T05:44:40.197Z,7.20
2018-12-09T05:49:42.793Z,7.20
2018-12-09T05:54:45.503Z,7.20
2018-12-09T05:59:48.095Z,7.10
2018-12-09T06:04:51.499Z,7.10
2018-12-09T06:09:53.918Z,7.10
2018-12-09T06:14:56.608Z,7.10
2018-12-09T06:19:59.549Z,7.10
2018-12-09T06:25:02.257Z,7.00
2018-12-09T06:30:06.322Z,7.00
2018-12-09T06:35:09.294Z,7.00
2018-12-09T06:40:11.691Z,7.00
2018-12-09T06:45:14.354Z,7.00
2018-12-09T06:50:16.908Z,7.00
2018-12-09T06:55:19.346Z,7.00
2018-12-09T07:00:21.758Z,7.00
2018-12-09T07:05:24.662Z,7.00
2018-12-09T07:10:28.086Z,7.00
2018-12-09T07:15:30.581Z,7.00
2018-12-09T07:20:33.194Z,6.90
2018-12-09T07:25:35.624Z,6.90
2018-12-09T07:30:38.138Z,6.90
2018-12-09T07:35:40.698Z,6.90
2018-12-09T07:40:43.186Z,6.80
2018-12-09T07:45:45.769Z,6.80
2018-12-09T07:50:48.372Z,6.80
2018-12-09T07:55:51.698Z,6.70
2018-12-09T08:00:54.107Z,6.70
2018-12-09T08:05:56.626Z,6.70
2018-12-09T08:10:59.335Z,6.70
2018-12-09T08:16:01.776Z,6.70
2018-12-09T08:21:04.330Z,6.70
2018-12-09T08:26:07.010Z,6.70
2018-12-09T08:31:09.429Z,6.70
2018-12-09T08:36:11.838Z,6.70
2018-12-09T08:41:14.245Z,6.70
2018-12-09T08:46:17.494Z,6.80
2018-12-09T08:51:20.016Z,6.80
2018-12-09T08:56:22.495Z,6.80
2018-12-09T09:01:24.949Z,6.80
2018-12-09T09:06:27.579Z,6.90
2018-12-09T09:11:29.986Z,6.90
2018-12-09T09:16:32.491Z,6.90
2018-12-09T09:21:34.907Z,6.90
2018-12-09T09:26:37.415Z,6.90
2018-12-09T09:31:39.898Z,6.90
2018-12-09T09:36:43.211Z,6.90
2018-12-09T09:41:45.651Z,6.90
2018-12-09T09:46:48.161Z,6.90
2018-12-09T09:51:50.563Z,6.90
2018-12-09T09:56:52.976Z,6.90
2018-12-09T10:01:55.516Z,6.90
2018-12-09T10:06:58.050Z,6.90
2018-12-09T10:12:00.562Z,6.90
2018-12-09T10:17:03.053Z,6.90
2018-12-09T10:22:05.475Z,7.00
2018-12-09T10:27:08.003Z,7.00
2018-12-09T10:32:10.419Z,7.10
2018-12-09T10:37:12.841Z,7.10
2018-12-09T10:42:15.263Z,7.20
2018-12-09T10:47:18.282Z,7.20
2018-12-09T10:52:20.846Z,7.20
2018-12-09T10:57:28.728Z,7.20
2018-12-09T11:02:34.398Z,7.20
2018-12-09T11:07:37.294Z,7.20
2018-12-09T11:12:40.194Z,7.30
2018-12-09T11:17:42.833Z,7.30
2018-12-09T11:22:45.435Z,7.30
2018-12-09T11:27:48.896Z,7.30
2018-12-09T11:32:51.374Z,7.20
2018-12-09T11:37:53.874Z,7.20
2018-12-09T11:42:56.275Z,7.20
2018-12-09T11:47:59.185Z,7.30
2018-12-09T11:53:02.550Z,7.30
2018-12-09T11:58:05.015Z,7.30
2018-12-09T12:03:07.523Z,7.30
2018-12-09T12:08:10.008Z,7.30
2018-12-09T12:13:12.493Z,7.30
2018-12-09T12:18:14.889Z,7.30
2018-12-09T12:23:17.364Z,7.30
2018-12-09T12:28:19.899Z,7.30
2018-12-09T12:33:22.302Z,7.30
2018-12-09T12:38:24.892Z,7.30
2018-12-09T12:43:27.322Z,7.30
2018-12-09T12:48:29.817Z,7.20
2018-12-09T12:53:32.329Z,7.20
2018-12-09T12:58:34.725Z,7.20
2018-12-09T13:03:37.236Z,7.20
2018-12-09T13:08:39.734Z,7.10
2018-12-09T13:13:42.214Z,7.10
2018-12-09T13:18:44.681Z,7.10
2018-12-09T13:23:47.181Z,7.10
2018-12-09T13:28:49.703Z,7.10
2018-12-09T13:33:52.531Z,7.10
2018-12-09T13:38:55.000Z,7.10
2018-12-09T13:43:57.574Z,7.10
2018-12-09T13:49:00.046Z,7.10
2018-12-09T13:54:02.521Z,7.10
2018-12-09T13:59:05.005Z,7.00
2018-12-09T14:04:07.406Z,7.00
2018-12-09T14:09:09.833Z,7.00
2018-12-09T14:14:12.327Z,7.00
2018-12-09T14:19:14.836Z,7.00
2018-12-09T14:24:17.628Z,6.90
2018-12-09T14:29:20.125Z,6.90
2018-12-09T14:34:22.713Z,6.90
2018-12-09T14:39:25.270Z,6.80
2018-12-09T14:44:29.385Z,6.80
2018-12-09T14:49:31.946Z,6.80
2018-12-09T14:54:34.462Z,6.80
2018-12-09T14:59:37.437Z,6.80
2018-12-09T15:04:40.148Z,6.80
2018-12-09T15:09:43.182Z,6.70
2018-12-09T15:14:45.881Z,6.70
2018-12-09T15:19:48.462Z,6.70
2018-12-09T15:24:50.851Z,6.70
2018-12-09T15:29:53.259Z,6.70
2018-12-09T15:34:55.666Z,6.60
2018-12-09T15:39:58.200Z,6.60
2018-12-09T15:45:00.626Z,6.60
2018-12-09T15:50:03.233Z,6.60
2018-12-09T15:55:05.857Z,6.50
2018-12-09T16:00:08.725Z,6.50
2018-12-09T16:05:11.317Z,6.50
2018-12-09T16:10:14.973Z,6.50
2018-12-09T16:15:17.464Z,6.50
2018-12-09T16:20:19.865Z,6.50
2018-12-09T16:25:22.365Z,6.50
2018-12-09T16:30:24.853Z,6.50
2018-12-09T16:36:15.286Z,6.50
2018-12-09T16:41:17.772Z,6.50
2018-12-09T16:46:20.171Z,6.50
2018-12-09T16:51:22.685Z,6.50
2018-12-09T16:56:25.193Z,6.50
2018-12-09T17:01:27.756Z,6.50
2018-12-09T17:06:30.146Z,6.50
2018-12-09T17:11:32.726Z,6.50
2018-12-09T17:16:35.371Z,6.50
2018-12-09T17:21:37.970Z,6.50
2018-12-09T17:26:40.579Z,6.50
2018-12-09T17:31:43.019Z,6.50
2018-12-09T17:36:45.468Z,6.50
2018-12-09T17:41:47.871Z,6.40
2018-12-09T17:46:50.362Z,6.40
2018-12-09T17:51:52.813Z,6.40
2018-12-09T17:56:55.225Z,6.40
2018-12-09T18:01:58.142Z,6.40
2018-12-09T18:07:00.588Z,6.40
2018-12-09T18:12:03.067Z,6.40
2018-12-09T18:17:05.507Z,6.30
2018-12-09T18:22:07.967Z,6.30
2018-12-09T18:27:10.492Z,6.30
2018-12-09T18:32:13.050Z,6.30
2018-12-09T18:37:15.636Z,6.30
2018-12-09T18:42:18.215Z,6.30
2018-12-09T19:08:53.082Z,6.30
2018-12-09T19:13:55.546Z,6.30
2018-12-09T19:18:58.701Z,6.30
2018-12-09T19:24:01.252Z,6.30
2018-12-09T19:29:03.746Z,6.40
2018-12-09T19:34:06.173Z,6.30
2018-12-09T19:39:09.364Z,6.40
2018-12-09T19:44:12.785Z,6.40
2018-12-09T19:49:15.237Z,6.30
2018-12-09T19:54:17.670Z,6.30
2018-12-09T19:59:20.173Z,6.30
2018-12-09T20:04:25.517Z,6.30
2018-12-09T20:09:28.446Z,6.30
2018-12-09T20:14:30.904Z,6.30
2018-12-09T20:19:33.447Z,6.30
2018-12-09T20:24:35.942Z,6.30
2018-12-09T20:29:38.561Z,6.30
2018-12-09T20:34:41.001Z,6.30
2018-12-09T20:39:43.461Z,6.20
2018-12-09T20:44:45.996Z,6.20
2018-12-09T20:49:48.446Z,6.20
2018-12-09T20:54:50.917Z,6.10
2018-12-09T20:59:53.412Z,6.10
2018-12-09T21:04:55.915Z,6.10
2018-12-09T21:09:58.342Z,6.00
2018-12-09T21:15:00.804Z,6.00
2018-12-09T21:20:03.526Z,6.00
2018-12-09T21:25:06.312Z,6.00
2018-12-09T21:30:08.895Z,6.00
2018-12-09T21:35:11.335Z,6.00
2018-12-09T21:40:13.794Z,6.00
2018-12-09T21:45:16.230Z,6.00
2018-12-09T21:50:18.674Z,6.00
2018-12-09T21:55:21.738Z,6.00
2018-12-09T22:00:24.259Z,6.00
2018-12-09T22:05:26.833Z,6.00
2018-12-09T22:10:29.290Z,5.90
2018-12-09T22:15:31.756Z,5.90
2018-12-09T22:20:34.202Z,5.90
2018-12-09T22:25:36.598Z,5.90
2018-12-09T22:30:39.027Z,5.90
2018-12-09T22:35:41.495Z,5.90
2018-12-09T22:40:44.685Z,5.90
2018-12-09T22:45:47.172Z,5.90
2018-12-09T22:50:49.582Z,5.90
2018-12-09T22:55:52.050Z,5.90
2018-12-09T23:06:23.736Z,5.90
2018-12-09T23:11:26.287Z,5.90
2018-12-09T23:16:28.690Z,5.90
2018-12-09T23:21:31.167Z,5.90
2018-12-09T23:26:33.617Z,5.90
2018-12-09T23:31:36.039Z,5.90
2018-12-09T23:36:38.507Z,5.90
2018-12-09T23:41:40.892Z,5.90
2018-12-09T23:46:43.397Z,5.90
2018-12-09T23:51:45.811Z,5.80
2018-12-09T23:56:48.208Z,5.90
